createdAt,value
2017-11-04T00:01:40.110Z,5.47
2017-11-04T00:04:07.601Z,5.30
2017-11-04T00:06:35.140Z,5.23
2017-11-04T00:09:04.372Z,5.37
2017-11-04T00:11:31.922Z,5.57
2017-11-04T00:13:59.696Z,5.57
2017-11-04T00:16:27.667Z,5.60
2017-11-04T00:18:55.435Z,5.10
2017-11-04T00:21:24.123Z,5.47
2017-11-04T00:23:51.653Z,4.87
2017-11-04T00:26:19.171Z,6.00
2017-11-04T00:28:46.693Z,5.00
2017-11-04T00:31:15.147Z,6.10
2017-11-04T00:33:42.688Z,5.80
2017-11-04T00:36:11.304Z,5.63
2017-11-04T00:38:39.169Z,5.63
2017-11-04T00:41:07.136Z,5.37
2017-11-04T00:43:35.004Z,4.80
2017-11-04T00:46:02.590Z,5.70
2017-11-04T00:48:31.606Z,5.63
2017-11-04T00:50:59.900Z,5.30
2017-11-04T00:53:28.162Z,5.07
2017-11-04T00:55:58.402Z,5.50
2017-11-04T00:58:25.900Z,4.60
2017-11-04T01:00:53.422Z,4.97
2017-11-04T01:03:20.946Z,4.97
2017-11-04T01:05:48.441Z,4.73
2017-11-04T01:08:17.941Z,5.00
2017-11-04T01:10:45.441Z,4.93
2017-11-04T01:13:12.971Z,5.27
2017-11-04T01:15:40.509Z,5.43
2017-11-04T01:18:08.010Z,6.17
2017-11-04T01:20:35.536Z,4.93
2017-11-04T01:23:03.034Z,5.50
2017-11-04T01:25:32.059Z,4.70
2017-11-04T01:28:00.327Z,4.93
2017-11-04T01:30:28.618Z,5.90
2017-11-04T01:32:56.138Z,5.27
2017-11-04T01:35:23.637Z,5.23
2017-11-04T01:37:51.275Z,4.97
2017-11-04T01:40:18.983Z,5.33
2017-11-04T01:42:46.517Z,5.13
2017-11-04T01:45:14.074Z,5.20
2017-11-04T01:47:41.707Z,5.20
2017-11-04T01:50:10.233Z,4.97
2017-11-04T01:52:38.868Z,5.37
2017-11-04T01:55:07.603Z,5.33
2017-11-04T01:57:36.492Z,5.17
2017-11-04T02:00:04.563Z,4.87
2017-11-04T02:02:32.531Z,4.70
2017-11-04T02:05:00.600Z,5.37
2017-11-04T02:07:28.670Z,5.67
2017-11-04T02:09:56.701Z,5.80
2017-11-04T02:12:25.425Z,5.73
2017-11-04T02:14:53.328Z,5.47
2017-11-04T02:17:22.954Z,4.90
2017-11-04T02:19:52.809Z,5.33
2017-11-04T02:22:20.675Z,4.73
2017-11-04T02:24:48.848Z,5.00
2017-11-04T02:27:16.815Z,5.63
2017-11-04T02:29:44.886Z,5.80
2017-11-04T02:32:12.689Z,5.93
2017-11-04T02:34:42.459Z,5.50
2017-11-04T02:37:10.324Z,5.50
2017-11-04T02:39:38.345Z,4.87
2017-11-04T02:42:05.979Z,5.50
2017-11-04T02:44:33.502Z,6.30
2017-11-04T02:47:01.009Z,5.37
2017-11-04T02:49:28.535Z,5.27
2017-11-04T02:51:56.041Z,6.10
2017-11-04T02:54:24.331Z,5.40
2017-11-04T02:56:52.778Z,6.10
2017-11-04T02:59:20.274Z,5.90
2017-11-04T03:01:47.815Z,7.47
2017-11-04T03:04:16.102Z,5.60
2017-11-04T03:06:43.605Z,6.77
2017-11-04T03:09:11.127Z,5.87
2017-11-04T03:11:39.577Z,5.00
2017-11-04T03:14:07.841Z,5.10
2017-11-04T03:16:35.364Z,5.40
2017-11-04T03:19:02.862Z,5.70
2017-11-04T03:21:31.153Z,5.80
2017-11-04T03:23:59.418Z,5.30
2017-11-04T03:26:27.734Z,5.47
2017-11-04T03:28:55.225Z,6.20
2017-11-04T03:31:22.742Z,5.20
2017-11-04T03:33:50.241Z,5.50
2017-11-04T03:36:17.761Z,5.43
2017-11-04T03:38:45.265Z,5.77
2017-11-04T03:41:12.786Z,5.63
2017-11-04T03:43:40.283Z,5.70
2017-11-04T03:46:08.581Z,4.60
2017-11-04T03:48:36.841Z,5.13
2017-11-04T03:51:05.125Z,5.50
2017-11-04T03:53:33.384Z,5.77
2017-11-04T03:56:01.666Z,5.40
2017-11-04T03:58:29.921Z,5.93
2017-11-04T04:00:57.435Z,5.00
2017-11-04T04:03:24.938Z,5.63
2017-11-04T04:05:52.453Z,5.20
2017-11-04T04:08:19.951Z,5.37
2017-11-04T04:10:47.473Z,4.40
2017-11-04T04:13:14.969Z,5.13
2017-11-04T04:15:42.490Z,5.90
2017-11-04T04:18:09.986Z,5.23
2017-11-04T04:20:39.326Z,5.27
2017-11-04T04:23:06.817Z,5.33
2017-11-04T04:25:34.338Z,5.60
2017-11-04T04:28:01.833Z,4.93
2017-11-04T04:30:31.294Z,5.10
2017-11-04T04:32:58.793Z,5.70
2017-11-04T04:35:26.292Z,6.30
2017-11-04T04:37:54.581Z,6.23
2017-11-04T04:40:22.081Z,5.50
2017-11-04T04:42:50.558Z,5.37
2017-11-04T04:45:18.062Z,5.50
2017-11-04T04:47:46.346Z,5.80
2017-11-04T04:50:13.849Z,5.27
2017-11-04T04:52:42.310Z,5.37
2017-11-04T04:55:09.842Z,5.27
2017-11-04T04:57:37.341Z,5.27
2017-11-04T05:00:04.867Z,5.20
2017-11-04T05:02:32.370Z,5.60
2017-11-04T05:04:59.892Z,5.23
2017-11-04T05:07:28.344Z,5.27
2017-11-04T05:09:55.846Z,4.50
2017-11-04T05:12:23.369Z,5.83
2017-11-04T05:14:50.873Z,5.33
2017-11-04T05:17:18.393Z,5.50
2017-11-04T05:19:45.893Z,4.97
2017-11-04T05:22:13.423Z,5.00
2017-11-04T05:24:40.917Z,4.73
2017-11-04T05:27:08.415Z,4.73
2017-11-04T05:29:35.929Z,5.13
2017-11-04T05:32:03.425Z,5.40
2017-11-04T05:34:30.941Z,5.40
2017-11-04T05:36:58.439Z,6.13
2017-11-04T05:39:25.953Z,4.83
2017-11-04T05:41:53.441Z,5.87
2017-11-04T05:44:20.941Z,5.23
2017-11-04T05:46:48.458Z,5.37
2017-11-04T05:49:16.925Z,5.17
2017-11-04T05:51:45.204Z,4.90
2017-11-04T05:54:13.466Z,6.20
2017-11-04T05:56:41.761Z,4.80
2017-11-04T05:59:09.278Z,5.03
2017-11-04T06:01:36.794Z,5.13
2017-11-04T06:04:04.298Z,4.90
2017-11-04T06:06:33.294Z,4.73
2017-11-04T06:09:01.583Z,5.20
2017-11-04T06:11:30.786Z,5.23
2017-11-04T06:13:58.316Z,5.10
2017-11-04T06:16:25.819Z,5.20
2017-11-04T06:18:53.312Z,4.93
2017-11-04T06:21:20.836Z,4.63
2017-11-04T06:23:48.346Z,5.83
2017-11-04T06:26:16.634Z,5.20
2017-11-04T06:28:44.914Z,5.30
2017-11-04T06:31:13.173Z,4.80
2017-11-04T06:33:41.457Z,5.10
2017-11-04T06:36:09.718Z,5.07
2017-11-04T06:38:38.001Z,5.23
2017-11-04T06:41:06.262Z,5.20
2017-11-04T06:43:33.758Z,4.70
2017-11-04T06:46:01.277Z,5.30
2017-11-04T06:48:28.794Z,5.17
2017-11-04T06:50:56.330Z,5.17
2017-11-04T06:53:23.830Z,5.93
2017-11-04T06:55:51.359Z,5.63
2017-11-04T06:58:18.852Z,5.50
2017-11-04T07:00:46.346Z,4.73
2017-11-04T07:03:14.633Z,5.43
2017-11-04T07:05:42.141Z,6.53
2017-11-04T07:08:09.662Z,6.17
2017-11-04T07:10:37.163Z,5.60
2017-11-04T07:13:04.661Z,5.10
2017-11-04T07:15:32.178Z,5.23
2017-11-04T07:17:59.682Z,4.30
2017-11-04T07:20:27.201Z,5.40
2017-11-04T07:22:55.485Z,4.90
2017-11-04T07:25:23.769Z,5.93
2017-11-04T07:27:52.025Z,5.40
2017-11-04T07:30:19.541Z,5.57
2017-11-04T07:32:47.033Z,5.37
2017-11-04T07:35:14.534Z,5.87
2017-11-04T07:37:44.041Z,6.10
2017-11-04T07:40:11.537Z,5.40
2017-11-04T07:42:39.054Z,5.33
2017-11-04T07:45:06.551Z,5.03
2017-11-04T07:47:34.050Z,4.63
2017-11-04T07:50:02.335Z,6.17
2017-11-04T07:52:30.806Z,5.70
2017-11-04T07:54:59.094Z,4.73
2017-11-04T07:57:27.545Z,5.90
2017-11-04T07:59:55.809Z,5.03
2017-11-04T08:02:23.344Z,5.60
2017-11-04T08:04:50.845Z,5.53
2017-11-04T08:07:19.137Z,4.93
2017-11-04T08:09:46.630Z,5.57
2017-11-04T08:12:14.140Z,5.70
2017-11-04T08:14:41.662Z,5.07
2017-11-04T08:17:09.157Z,5.10
2017-11-04T08:19:36.691Z,5.20
2017-11-04T08:22:04.958Z,5.10
2017-11-04T08:24:32.454Z,5.87
2017-11-04T08:26:59.973Z,5.33
2017-11-04T08:29:28.431Z,5.90
2017-11-04T08:31:55.951Z,5.10
2017-11-04T08:34:23.462Z,5.20
2017-11-04T08:36:52.682Z,5.40
2017-11-04T08:39:20.966Z,4.70
2017-11-04T08:41:48.469Z,5.13
2017-11-04T08:44:17.934Z,4.80
2017-11-04T08:46:45.442Z,5.80
2017-11-04T08:49:12.943Z,5.20
2017-11-04T08:51:40.466Z,5.03
2017-11-04T08:54:09.677Z,5.67
2017-11-04T08:56:37.969Z,5.33
2017-11-04T08:59:06.233Z,5.37
2017-11-04T09:01:34.498Z,4.70
2017-11-04T09:04:03.801Z,5.70
2017-11-04T09:06:32.066Z,5.20
2017-11-04T09:08:59.583Z,5.30
2017-11-04T09:11:27.077Z,5.70
2017-11-04T09:13:54.607Z,4.33
2017-11-04T09:16:22.105Z,4.90
2017-11-04T09:18:50.394Z,6.77
2017-11-04T09:21:17.941Z,4.97
2017-11-04T09:23:46.202Z,5.83
2017-11-04T09:26:14.631Z,5.10
2017-11-04T09:28:42.318Z,5.17
2017-11-04T09:31:09.838Z,5.17
2017-11-04T09:33:39.114Z,5.10
2017-11-04T09:36:07.374Z,5.20
2017-11-04T09:38:34.894Z,4.57
2017-11-04T09:41:02.389Z,5.80
2017-11-04T09:43:30.670Z,5.17
2017-11-04T09:45:59.895Z,5.23
2017-11-04T09:48:28.350Z,4.20
2017-11-04T09:50:56.613Z,5.33
2017-11-04T09:53:26.090Z,5.53
2017-11-04T09:55:54.543Z,5.33
2017-11-04T09:58:22.054Z,5.50
2017-11-04T10:00:52.323Z,5.30
2017-11-04T10:03:19.829Z,5.20
2017-11-04T10:05:47.343Z,4.83
2017-11-04T10:08:14.846Z,4.80
2017-11-04T10:10:43.134Z,5.60
2017-11-04T10:13:11.413Z,5.53
2017-11-04T10:15:39.673Z,4.63
2017-11-04T10:18:07.962Z,5.57
2017-11-04T10:20:36.250Z,5.67
2017-11-04T10:23:05.706Z,5.57
2017-11-04T10:25:34.195Z,5.10
2017-11-04T10:28:01.725Z,5.03
2017-11-04T10:30:29.250Z,5.23
2017-11-04T10:32:56.753Z,5.40
2017-11-04T10:35:24.301Z,4.40
2017-11-04T10:37:51.817Z,5.20
2017-11-04T10:40:19.314Z,5.73
2017-11-04T10:42:47.159Z,5.40
2017-11-04T10:45:14.724Z,4.80
2017-11-04T10:47:42.400Z,5.37
2017-11-04T10:50:09.963Z,5.23
2017-11-04T10:52:37.917Z,4.60
2017-11-04T10:55:06.225Z,5.27
2017-11-04T10:57:33.746Z,4.80
2017-11-04T11:00:01.266Z,4.80
2017-11-04T11:02:29.530Z,5.10
2017-11-04T11:04:57.802Z,4.70
2017-11-04T11:07:26.086Z,4.80
2017-11-04T11:09:54.345Z,4.20
2017-11-04T11:12:21.867Z,5.40
2017-11-04T11:14:49.371Z,6.50
2017-11-04T11:17:17.641Z,79.57
2017-11-04T11:19:47.893Z,40.67
2017-11-04T11:22:15.433Z,46.40
2017-11-04T11:24:43.710Z,52.00
2017-11-04T11:27:12.226Z,71.27
2017-11-04T11:29:39.731Z,53.47
2017-11-04T11:32:08.032Z,45.20
2017-11-04T11:34:36.518Z,38.90
2017-11-04T11:37:04.059Z,39.60
2017-11-04T11:39:32.326Z,38.60
2017-11-04T11:42:00.623Z,35.13
2017-11-04T11:44:28.129Z,35.83
2017-11-04T11:46:55.637Z,31.93
2017-11-04T11:49:23.170Z,31.70
2017-11-04T11:51:51.445Z,28.90
2017-11-04T11:54:19.746Z,28.70
2017-11-04T11:56:47.261Z,32.90
2017-11-04T11:59:14.791Z,30.97
2017-11-04T12:01:44.277Z,27.40
2017-11-04T12:04:11.781Z,27.60
2017-11-04T12:06:40.069Z,28.87
2017-11-04T12:09:09.286Z,27.30
2017-11-04T12:11:36.842Z,26.37
2017-11-04T12:14:04.347Z,23.83
2017-11-04T12:16:32.115Z,24.43
2017-11-04T12:18:59.694Z,24.97
2017-11-04T12:21:28.121Z,23.60
2017-11-04T12:23:55.884Z,22.07
2017-11-04T12:26:23.647Z,21.77
2017-11-04T12:28:51.190Z,22.20
2017-11-04T12:31:18.729Z,20.70
2017-11-04T12:33:47.001Z,20.13
2017-11-04T12:36:15.281Z,19.47
2017-11-04T12:38:43.578Z,20.10
2017-11-04T12:41:13.086Z,20.63
2017-11-04T12:43:40.590Z,16.97
2017-11-04T12:46:08.100Z,17.23
2017-11-04T12:48:35.627Z,17.33
2017-11-04T12:51:03.897Z,17.60
2017-11-04T12:53:32.189Z,15.10
2017-11-04T12:55:59.705Z,18.10
2017-11-04T12:58:27.233Z,16.37
2017-11-04T13:00:54.752Z,16.30
2017-11-04T13:03:23.060Z,14.50
2017-11-04T13:05:51.502Z,14.40
2017-11-04T13:08:19.793Z,14.53
2017-11-04T13:10:47.294Z,13.57
2017-11-04T13:13:14.823Z,14.50
2017-11-04T13:15:42.325Z,12.73
2017-11-04T13:18:09.854Z,13.90
2017-11-04T13:20:37.390Z,12.27
2017-11-04T13:23:04.890Z,12.20
2017-11-04T13:25:32.397Z,14.93
2017-11-04T13:27:59.913Z,13.67
2017-11-04T13:30:28.361Z,12.90
2017-11-04T13:32:55.890Z,12.43
2017-11-04T13:35:23.390Z,11.83
2017-11-04T13:37:50.920Z,11.30
2017-11-04T13:40:18.421Z,10.53
2017-11-04T13:42:45.950Z,9.97
2017-11-04T13:45:13.456Z,10.30
2017-11-04T13:47:42.734Z,10.83
2017-11-04T13:50:10.242Z,10.37
2017-11-04T13:52:38.086Z,9.63
2017-11-04T13:55:06.354Z,10.53
2017-11-04T13:57:34.652Z,10.80
2017-11-04T14:00:02.164Z,9.30
2017-11-04T14:02:29.666Z,9.27
2017-11-04T14:04:57.205Z,10.63
2017-11-04T14:07:25.470Z,8.80
2017-11-04T14:09:53.757Z,9.50
2017-11-04T14:12:22.026Z,9.33
2017-11-04T14:14:50.341Z,8.80
2017-11-04T14:17:17.833Z,8.60
2017-11-04T14:19:45.451Z,8.50
2017-11-04T14:22:13.317Z,8.50
2017-11-04T14:24:42.310Z,7.80
2017-11-04T14:27:10.078Z,7.60
2017-11-04T14:29:37.795Z,9.47
2017-11-04T14:32:05.632Z,8.20
2017-11-04T14:34:33.135Z,8.53
2017-11-04T14:37:01.022Z,8.80
2017-11-04T14:39:28.589Z,8.00
2017-11-04T14:41:57.369Z,8.00
2017-11-04T14:44:25.129Z,7.57
2017-11-04T14:46:52.790Z,7.70
2017-11-04T14:49:20.555Z,8.80
2017-11-04T14:51:48.111Z,8.30
2017-11-04T14:54:15.613Z,7.53
2017-11-04T14:56:43.137Z,7.13
2017-11-04T14:59:10.653Z,7.87
2017-11-04T15:01:38.947Z,6.13
2017-11-04T15:04:07.399Z,7.80
2017-11-04T15:06:37.645Z,6.53
2017-11-04T15:09:05.157Z,7.70
2017-11-04T15:11:32.701Z,7.73
2017-11-04T15:14:00.214Z,7.30
2017-11-04T15:16:27.743Z,7.03
2017-11-04T15:18:55.247Z,6.17
2017-11-04T15:21:22.779Z,7.40
2017-11-04T15:23:50.282Z,8.40
2017-11-04T15:26:17.781Z,7.47
2017-11-04T15:28:45.321Z,6.43
2017-11-04T15:31:13.592Z,7.20
2017-11-04T15:33:41.121Z,6.80
2017-11-04T15:36:08.630Z,7.87
2017-11-04T15:38:38.899Z,6.30
2017-11-04T15:41:06.405Z,5.77
2017-11-04T15:43:34.674Z,6.87
2017-11-04T15:46:04.921Z,7.27
2017-11-04T15:48:32.419Z,5.83
2017-11-04T15:50:59.941Z,7.20
2017-11-04T15:53:27.441Z,5.97
2017-11-04T15:55:54.970Z,6.53
2017-11-04T15:58:22.469Z,6.60
2017-11-04T16:00:49.979Z,6.53
2017-11-04T16:03:17.498Z,6.17
2017-11-04T16:05:45.757Z,6.43
2017-11-04T16:08:13.290Z,6.30
2017-11-04T16:10:40.810Z,5.90
2017-11-04T16:13:08.346Z,7.30
2017-11-04T16:15:36.625Z,6.63
2017-11-04T16:18:04.904Z,5.57
2017-11-04T16:20:33.198Z,5.77
2017-11-04T16:23:00.701Z,5.83
2017-11-04T16:25:28.230Z,6.10
2017-11-04T16:27:56.677Z,5.80
2017-11-04T16:30:24.208Z,6.60
2017-11-04T16:32:51.710Z,5.50
2017-11-04T16:35:19.213Z,6.20
2017-11-04T16:37:47.633Z,6.10
2017-11-04T16:40:15.125Z,5.27
2017-11-04T16:42:42.647Z,6.43
2017-11-04T16:45:10.138Z,6.93
2017-11-04T16:47:37.641Z,6.27
2017-11-04T16:50:05.935Z,6.07
2017-11-04T16:52:33.430Z,5.83
2017-11-04T16:55:00.946Z,5.50
2017-11-04T16:57:28.446Z,6.20
2017-11-04T16:59:55.942Z,5.37
2017-11-04T17:02:24.234Z,6.13
2017-11-04T17:04:51.741Z,5.53
2017-11-04T17:07:19.257Z,5.40
2017-11-04T17:09:46.758Z,6.07
2017-11-04T17:12:14.282Z,6.03
2017-11-04T17:14:41.777Z,6.00
2017-11-04T17:17:09.277Z,5.73
2017-11-04T17:19:36.807Z,6.30
2017-11-04T17:22:04.310Z,6.57
2017-11-04T17:24:31.828Z,5.40
2017-11-04T17:27:01.038Z,6.40
2017-11-04T17:29:30.271Z,6.87
2017-11-04T17:31:57.790Z,6.10
2017-11-04T17:34:26.058Z,6.00
2017-11-04T17:36:56.306Z,5.43
2017-11-04T17:39:23.804Z,6.80
2017-11-04T17:41:51.329Z,5.97
2017-11-04T17:44:18.830Z,6.27
2017-11-04T17:46:46.330Z,6.73
2017-11-04T17:49:13.846Z,5.77
2017-11-04T17:51:42.325Z,6.00
2017-11-04T17:54:09.847Z,6.53
2017-11-04T17:56:37.366Z,6.63
2017-11-04T17:59:05.633Z,6.20
2017-11-04T18:01:33.923Z,6.27
2017-11-04T18:04:01.421Z,6.10
2017-11-04T18:06:28.919Z,5.40
2017-11-04T18:08:57.206Z,4.90
2017-11-04T18:11:25.477Z,6.23
2017-11-04T18:13:53.769Z,5.53
2017-11-04T18:16:21.277Z,5.67
2017-11-04T18:18:50.734Z,6.07
2017-11-04T18:21:18.230Z,5.67
2017-11-04T18:23:45.729Z,5.67
2017-11-04T18:26:14.020Z,6.03
2017-11-04T18:28:41.517Z,5.50
2017-11-04T18:31:09.029Z,5.43
2017-11-04T18:33:36.526Z,5.40
2017-11-04T18:36:04.022Z,5.30
2017-11-04T18:38:32.309Z,5.60
2017-11-04T18:41:00.575Z,6.30
2017-11-04T18:43:28.857Z,5.70
2017-11-04T18:45:57.117Z,6.20
2017-11-04T18:48:25.410Z,5.90
2017-11-04T18:50:53.670Z,5.73
2017-11-04T18:53:21.940Z,6.57
2017-11-04T18:55:50.229Z,5.87
2017-11-04T18:58:18.493Z,5.77
2017-11-04T19:00:46.803Z,5.60
2017-11-04T19:03:14.293Z,6.20
2017-11-04T19:05:41.809Z,5.43
2017-11-04T19:08:09.326Z,5.33
2017-11-04T19:10:36.825Z,5.60
2017-11-04T19:13:06.339Z,6.03
2017-11-04T19:15:33.829Z,5.73
2017-11-04T19:18:01.354Z,5.13
2017-11-04T19:20:28.856Z,5.57
2017-11-04T19:22:56.358Z,5.83
2017-11-04T19:25:23.879Z,4.90
2017-11-04T19:27:51.375Z,6.10
2017-11-04T19:30:18.898Z,6.10
2017-11-04T19:32:47.161Z,5.17
2017-11-04T19:35:14.667Z,6.60
2017-11-04T19:37:42.177Z,6.07
2017-11-04T19:40:09.678Z,5.87
2017-11-04T19:42:37.201Z,5.43
2017-11-04T19:45:05.457Z,5.77
2017-11-04T19:47:32.957Z,6.30
2017-11-04T19:50:00.483Z,5.97
2017-11-04T19:52:28.751Z,6.03
2017-11-04T19:54:56.271Z,5.50
2017-11-04T19:57:23.766Z,6.13
2017-11-04T19:59:51.286Z,6.03
2017-11-04T20:02:18.784Z,5.70
2017-11-04T20:04:47.086Z,5.30
2017-11-04T20:07:14.594Z,5.90
2017-11-04T20:09:42.094Z,4.77
2017-11-04T20:12:10.374Z,5.57
2017-11-04T20:14:37.876Z,5.90
2017-11-04T20:17:05.396Z,5.40
2017-11-04T20:19:33.854Z,6.33
2017-11-04T20:22:02.143Z,6.10
2017-11-04T20:24:31.334Z,5.43
2017-11-04T20:26:59.604Z,5.40
2017-11-04T20:29:27.890Z,5.80
2017-11-04T20:31:55.389Z,6.60
2017-11-04T20:34:22.910Z,5.80
2017-11-04T20:36:50.409Z,6.10
2017-11-04T20:39:17.913Z,5.33
2017-11-04T20:41:45.434Z,5.33
2017-11-04T20:44:12.937Z,5.63
2017-11-04T20:46:42.394Z,6.03
2017-11-04T20:49:09.894Z,6.47
2017-11-04T20:51:37.414Z,5.90
2017-11-04T20:54:04.929Z,6.67
2017-11-04T20:56:32.422Z,6.77
2017-11-04T20:59:01.883Z,5.30
2017-11-04T21:01:29.386Z,5.70
2017-11-04T21:03:56.910Z,6.80
2017-11-04T21:06:24.410Z,6.33
2017-11-04T21:08:52.708Z,6.60
2017-11-04T21:11:20.231Z,6.50
2017-11-04T21:13:47.738Z,8.80
2017-11-04T21:16:15.258Z,6.60
2017-11-04T21:18:43.525Z,6.13
2017-11-04T21:21:11.035Z,6.97
2017-11-04T21:23:38.558Z,6.40
2017-11-04T21:26:06.818Z,6.80
2017-11-04T21:28:37.086Z,6.87
2017-11-04T21:31:04.590Z,6.77
2017-11-04T21:33:32.109Z,6.23
2017-11-04T21:35:59.604Z,6.30
2017-11-04T21:38:27.116Z,6.33
2017-11-04T21:40:54.638Z,6.90
2017-11-04T21:43:22.913Z,6.90
2017-11-04T21:45:51.206Z,6.80
2017-11-04T21:48:18.703Z,6.93
2017-11-04T21:50:48.202Z,5.60
2017-11-04T21:53:16.601Z,5.77
2017-11-04T21:55:44.426Z,5.50
2017-11-04T21:58:12.292Z,6.63
2017-11-04T22:00:40.261Z,6.20
2017-11-04T22:03:09.207Z,5.87
2017-11-04T22:05:36.938Z,6.63
2017-11-04T22:08:04.880Z,6.67
2017-11-04T22:10:32.745Z,6.87
2017-11-04T22:13:02.378Z,5.77
2017-11-04T22:15:30.799Z,6.33
2017-11-04T22:17:58.379Z,6.30
2017-11-04T22:20:27.278Z,6.80
2017-11-04T22:22:55.145Z,5.80
2017-11-04T22:25:23.727Z,6.53
2017-11-04T22:27:51.334Z,6.50
2017-11-04T22:30:18.961Z,5.30
2017-11-04T22:32:46.470Z,6.30
2017-11-04T22:35:14.762Z,6.37
2017-11-04T22:37:42.267Z,6.60
2017-11-04T22:40:09.802Z,5.80
2017-11-04T22:42:37.453Z,5.97
2017-11-04T22:45:04.990Z,6.47
2017-11-04T22:47:33.613Z,5.83
2017-11-04T22:50:02.278Z,5.67
2017-11-04T22:52:31.374Z,6.37
2017-11-04T22:55:00.363Z,6.00
2017-11-04T22:57:28.433Z,6.50
2017-11-04T22:59:57.527Z,5.63
2017-11-04T23:02:25.281Z,7.90
2017-11-04T23:04:54.180Z,5.93
2017-11-04T23:07:22.044Z,5.30
2017-11-04T23:09:50.012Z,5.27
2017-11-04T23:12:17.980Z,5.47
2017-11-04T23:14:45.948Z,5.67
2017-11-04T23:17:14.940Z,5.90
2017-11-04T23:19:42.805Z,5.20
2017-11-04T23:22:10.772Z,5.70
2017-11-04T23:24:38.640Z,6.37
2017-11-04T23:27:06.233Z,6.20
2017-11-04T23:29:34.703Z,5.90
2017-11-04T23:32:03.039Z,6.03
2017-11-04T23:34:30.558Z,5.70
2017-11-04T23:36:58.058Z,5.27
2017-11-04T23:39:25.578Z,6.87
2017-11-04T23:41:54.041Z,6.03
2017-11-04T23:44:21.570Z,6.13
2017-11-04T23:46:49.061Z,7.10
2017-11-04T23:49:16.577Z,6.30
2017-11-04T23:51:44.082Z,6.10
2017-11-04T23:54:12.378Z,6.43
2017-11-04T23:56:40.642Z,5.93
2017-11-04T23:59:08.937Z,6.87
